sensor_id;sensor_type;location;lat;lon;timestamp;P1;durP1;ratioP1;P2;durP2;ratioP2
11964;SDS011;6042;41.326;19.826;2022-11-15T00:00:59;10.43;;;7.83;;
11964;SDS011;6042;41.326;19.826;2022-11-15T00:03:46;9.70;;;8.07;;
11964;SDS011;6042;41.326;19.826;2022-11-15T00:06:37;11.87;;;7.87;;
11964;SDS011;6042;41.326;19.826;2022-11-15T00:09:27;10.27;;;8.23;;
11964;SDS011;6042;41.326;19.826;2022-11-15T00:12:15;12.47;;;8.13;;
11964;SDS011;6042;41.326;19.826;2022-11-15T00:15:02;9.43;;;8.23;;
11964;SDS011;6042;41.326;19.826;2022-11-15T00:17:52;10.03;;;8.03;;
11964;SDS011;6042;41.326;19.826;2022-11-15T00:20:39;11.27;;;8.43;;
11964;SDS011;6042;41.326;19.826;2022-11-15T00:23:26;9.47;;;7.67;;
11964;SDS011;6042;41.326;19.826;2022-11-15T00:26:14;8.27;;;7.57;;
11964;SDS011;6042;41.326;19.826;2022-11-15T00:29:03;8.90;;;7.70;;
11964;SDS011;6042;41.326;19.826;2022-11-15T00:31:52;8.17;;;7.40;;
11964;SDS011;6042;41.326;19.826;2022-11-15T00:34:40;13.63;;;7.47;;
11964;SDS011;6042;41.326;19.826;2022-11-15T00:37:28;7.93;;;6.83;;
11964;SDS011;6042;41.326;19.826;2022-11-15T00:40:16;12.10;;;7.60;;
11964;SDS011;6042;41.326;19.826;2022-11-15T00:43:03;9.30;;;7.50;;
11964;SDS011;6042;41.326;19.826;2022-11-15T00:45:50;10.00;;;7.47;;
11964;SDS011;6042;41.326;19.826;2022-11-15T00:48:37;7.97;;;7.27;;
11964;SDS011;6042;41.326;19.826;2022-11-15T00:51:26;10.23;;;6.70;;
11964;SDS011;6042;41.326;19.826;2022-11-15T00:54:13;8.33;;;6.80;;
11964;SDS011;6042;41.326;19.826;2022-11-15T00:57:01;7.60;;;6.80;;
11964;SDS011;6042;41.326;19.826;2022-11-15T00:59:48;8.40;;;7.47;;
11964;SDS011;6042;41.326;19.826;2022-11-15T01:02:35;9.53;;;7.27;;
11964;SDS011;6042;41.326;19.826;2022-11-15T01:05:24;9.00;;;6.80;;
11964;SDS011;6042;41.326;19.826;2022-11-15T01:08:13;8.00;;;7.27;;
11964;SDS011;6042;41.326;19.826;2022-11-15T01:11:02;8.83;;;7.27;;
11964;SDS011;6042;41.326;19.826;2022-11-15T01:13:51;7.93;;;7.03;;
11964;SDS011;6042;41.326;19.826;2022-11-15T01:16:39;8.10;;;6.63;;
11964;SDS011;6042;41.326;19.826;2022-11-15T01:19:28;8.63;;;7.40;;
11964;SDS011;6042;41.326;19.826;2022-11-15T01:22:15;9.13;;;7.60;;
11964;SDS011;6042;41.326;19.826;2022-11-15T01:25:05;8.77;;;7.77;;
11964;SDS011;6042;41.326;19.826;2022-11-15T01:27:52;8.90;;;8.00;;
11964;SDS011;6042;41.326;19.826;2022-11-15T01:30:40;9.17;;;8.37;;
11964;SDS011;6042;41.326;19.826;2022-11-15T01:33:27;8.03;;;7.23;;
11964;SDS011;6042;41.326;19.826;2022-11-15T01:36:16;8.53;;;7.07;;
11964;SDS011;6042;41.326;19.826;2022-11-15T01:39:07;8.47;;;7.57;;
11964;SDS011;6042;41.326;19.826;2022-11-15T01:41:57;8.27;;;7.00;;
11964;SDS011;6042;41.326;19.826;2022-11-15T01:44:45;8.10;;;7.30;;
11964;SDS011;6042;41.326;19.826;2022-11-15T01:47:35;11.37;;;7.50;;
11964;SDS011;6042;41.326;19.826;2022-11-15T01:50:25;8.70;;;7.80;;
11964;SDS011;6042;41.326;19.826;2022-11-15T01:53:18;9.93;;;7.30;;
11964;SDS011;6042;41.326;19.826;2022-11-15T01:56:09;10.40;;;8.10;;
11964;SDS011;6042;41.326;19.826;2022-11-15T01:59:02;11.00;;;7.53;;
11964;SDS011;6042;41.326;19.826;2022-11-15T02:01:52;10.83;;;8.03;;
11964;SDS011;6042;41.326;19.826;2022-11-15T02:04:41;9.53;;;7.77;;
11964;SDS011;6042;41.326;19.826;2022-11-15T02:07:31;8.87;;;8.07;;
11964;SDS011;6042;41.326;19.826;2022-11-15T02:10:21;8.57;;;7.73;;
11964;SDS011;6042;41.326;19.826;2022-11-15T02:13:11;9.30;;;8.40;;
11964;SDS011;6042;41.326;19.826;2022-11-15T02:16:11;9.77;;;7.77;;
11964;SDS011;6042;41.326;19.826;2022-11-15T02:19:07;9.50;;;8.07;;
11964;SDS011;6042;41.326;19.826;2022-11-15T02:22:10;9.20;;;7.77;;
11964;SDS011;6042;41.326;19.826;2022-11-15T02:25:16;9.90;;;7.63;;
11964;SDS011;6042;41.326;19.826;2022-11-15T02:28:28;10.83;;;7.37;;
11964;SDS011;6042;41.326;19.826;2022-11-15T02:31:33;8.53;;;7.60;;
11964;SDS011;6042;41.326;19.826;2022-11-15T02:34:32;7.90;;;7.10;;
11964;SDS011;6042;41.326;19.826;2022-11-15T02:37:32;8.13;;;7.33;;
11964;SDS011;6042;41.326;19.826;2022-11-15T02:40:26;8.23;;;7.20;;
11964;SDS011;6042;41.326;19.826;2022-11-15T02:43:21;8.33;;;7.50;;
11964;SDS011;6042;41.326;19.826;2022-11-15T02:46:34;8.27;;;7.57;;
11964;SDS011;6042;41.326;19.826;2022-11-15T02:49:46;7.67;;;6.87;;
11964;SDS011;6042;41.326;19.826;2022-11-15T02:52:34;8.20;;;7.13;;
11964;SDS011;6042;41.326;19.826;2022-11-15T02:55:25;7.83;;;6.80;;
11964;SDS011;6042;41.326;19.826;2022-11-15T02:58:22;7.27;;;6.57;;
11964;SDS011;6042;41.326;19.826;2022-11-15T03:01:37;7.30;;;6.60;;
11964;SDS011;6042;41.326;19.826;2022-11-15T03:04:35;8.80;;;7.17;;
11964;SDS011;6042;41.326;19.826;2022-11-15T03:07:31;9.03;;;6.50;;
11964;SDS011;6042;41.326;19.826;2022-11-15T03:10:25;8.00;;;6.73;;
11964;SDS011;6042;41.326;19.826;2022-11-15T03:13:20;7.73;;;6.83;;
11964;SDS011;6042;41.326;19.826;2022-11-15T03:16:15;7.97;;;6.83;;
11964;SDS011;6042;41.326;19.826;2022-11-15T03:19:09;8.20;;;6.63;;
11964;SDS011;6042;41.326;19.826;2022-11-15T03:21:59;7.63;;;6.93;;
11964;SDS011;6042;41.326;19.826;2022-11-15T03:24:52;7.70;;;6.90;;
11964;SDS011;6042;41.326;19.826;2022-11-15T03:27:43;9.53;;;6.97;;
11964;SDS011;6042;41.326;19.826;2022-11-15T03:30:34;7.13;;;6.53;;
11964;SDS011;6042;41.326;19.826;2022-11-15T03:33:24;7.93;;;6.80;;
11964;SDS011;6042;41.326;19.826;2022-11-15T03:36:14;8.20;;;6.77;;
11964;SDS011;6042;41.326;19.826;2022-11-15T03:39:04;7.30;;;6.60;;
11964;SDS011;6042;41.326;19.826;2022-11-15T03:41:56;9.53;;;7.20;;
11964;SDS011;6042;41.326;19.826;2022-11-15T03:44:51;11.23;;;7.00;;
11964;SDS011;6042;41.326;19.826;2022-11-15T03:47:45;7.67;;;6.70;;
11964;SDS011;6042;41.326;19.826;2022-11-15T03:50:38;8.13;;;7.33;;
11964;SDS011;6042;41.326;19.826;2022-11-15T03:53:29;8.37;;;7.00;;
11964;SDS011;6042;41.326;19.826;2022-11-15T03:56:17;7.50;;;6.80;;
11964;SDS011;6042;41.326;19.826;2022-11-15T03:59:04;8.33;;;7.53;;
11964;SDS011;6042;41.326;19.826;2022-11-15T04:01:51;7.40;;;6.70;;
11964;SDS011;6042;41.326;19.826;2022-11-15T04:04:39;7.87;;;7.17;;
11964;SDS011;6042;41.326;19.826;2022-11-15T04:07:26;7.97;;;7.07;;
11964;SDS011;6042;41.326;19.826;2022-11-15T04:10:15;8.10;;;7.30;;
11964;SDS011;6042;41.326;19.826;2022-11-15T04:13:03;7.50;;;6.80;;
11964;SDS011;6042;41.326;19.826;2022-11-15T04:15:52;10.17;;;7.67;;
11964;SDS011;6042;41.326;19.826;2022-11-15T04:18:40;8.63;;;7.20;;
11964;SDS011;6042;41.326;19.826;2022-11-15T04:21:27;8.27;;;6.97;;
11964;SDS011;6042;41.326;19.826;2022-11-15T04:24:31;8.23;;;7.43;;
11964;SDS011;6042;41.326;19.826;2022-11-15T04:27:21;9.53;;;6.80;;
11964;SDS011;6042;41.326;19.826;2022-11-15T04:30:08;9.87;;;7.70;;
11964;SDS011;6042;41.326;19.826;2022-11-15T04:32:56;10.30;;;7.03;;
11964;SDS011;6042;41.326;19.826;2022-11-15T04:35:43;8.70;;;7.27;;
11964;SDS011;6042;41.326;19.826;2022-11-15T04:38:51;8.90;;;7.47;;
11964;SDS011;6042;41.326;19.826;2022-11-15T04:41:38;8.47;;;7.57;;
11964;SDS011;6042;41.326;19.826;2022-11-15T04:44:27;7.93;;;7.13;;
11964;SDS011;6042;41.326;19.826;2022-11-15T04:47:14;9.23;;;7.80;;
11964;SDS011;6042;41.326;19.826;2022-11-15T04:50:02;9.03;;;8.13;;
11964;SDS011;6042;41.326;19.826;2022-11-15T04:52:50;8.87;;;7.97;;
11964;SDS011;6042;41.326;19.826;2022-11-15T04:55:40;8.27;;;7.33;;
11964;SDS011;6042;41.326;19.826;2022-11-15T04:58:31;7.97;;;7.27;;
11964;SDS011;6042;41.326;19.826;2022-11-15T05:01:21;8.70;;;7.80;;
11964;SDS011;6042;41.326;19.826;2022-11-15T05:04:10;8.53;;;7.67;;
11964;SDS011;6042;41.326;19.826;2022-11-15T05:07:05;7.97;;;7.13;;
11964;SDS011;6042;41.326;19.826;2022-11-15T05:09:52;8.80;;;7.90;;
11964;SDS011;6042;41.326;19.826;2022-11-15T05:12:39;8.17;;;7.37;;
11964;SDS011;6042;41.326;19.826;2022-11-15T05:15:27;8.93;;;7.77;;
11964;SDS011;6042;41.326;19.826;2022-11-15T05:18:15;10.83;;;7.77;;
11964;SDS011;6042;41.326;19.826;2022-11-15T05:21:08;8.07;;;7.17;;
11964;SDS011;6042;41.326;19.826;2022-11-15T05:23:58;9.13;;;8.10;;
11964;SDS011;6042;41.326;19.826;2022-11-15T05:26:45;9.20;;;7.93;;
11964;SDS011;6042;41.326;19.826;2022-11-15T05:29:32;8.03;;;7.30;;
11964;SDS011;6042;41.326;19.826;2022-11-15T05:32:20;10.10;;;8.57;;
11964;SDS011;6042;41.326;19.826;2022-11-15T05:35:11;9.40;;;6.93;;
11964;SDS011;6042;41.326;19.826;2022-11-15T05:38:04;9.23;;;8.00;;
11964;SDS011;6042;41.326;19.826;2022-11-15T05:40:52;8.90;;;8.10;;
11964;SDS011;6042;41.326;19.826;2022-11-15T05:43:41;9.17;;;8.23;;
11964;SDS011;6042;41.326;19.826;2022-11-15T05:46:30;7.30;;;6.67;;
11964;SDS011;6042;41.326;19.826;2022-11-15T05:49:17;8.90;;;7.40;;
11964;SDS011;6042;41.326;19.826;2022-11-15T05:52:09;9.20;;;7.90;;
11964;SDS011;6042;41.326;19.826;2022-11-15T05:55:01;7.70;;;7.00;;
11964;SDS011;6042;41.326;19.826;2022-11-15T05:57:49;8.97;;;7.27;;
11964;SDS011;6042;41.326;19.826;2022-11-15T06:00:36;7.53;;;6.90;;
11964;SDS011;6042;41.326;19.826;2022-11-15T06:03:24;8.37;;;6.83;;
11964;SDS011;6042;41.326;19.826;2022-11-15T06:06:11;9.63;;;8.10;;
11964;SDS011;6042;41.326;19.826;2022-11-15T06:09:02;8.53;;;7.70;;
11964;SDS011;6042;41.326;19.826;2022-11-15T06:11:49;9.33;;;6.60;;
11964;SDS011;6042;41.326;19.826;2022-11-15T06:14:37;6.80;;;6.20;;
11964;SDS011;6042;41.326;19.826;2022-11-15T06:17:24;7.03;;;6.33;;
11964;SDS011;6042;41.326;19.826;2022-11-15T06:20:11;9.23;;;6.13;;
11964;SDS011;6042;41.326;19.826;2022-11-15T06:22:58;7.17;;;6.47;;
11964;SDS011;6042;41.326;19.826;2022-11-15T06:25:49;8.07;;;6.80;;
11964;SDS011;6042;41.326;19.826;2022-11-15T06:28:36;8.17;;;6.87;;
11964;SDS011;6042;41.326;19.826;2022-11-15T06:31:25;9.73;;;7.93;;
11964;SDS011;6042;41.326;19.826;2022-11-15T06:34:12;7.43;;;6.77;;
11964;SDS011;6042;41.326;19.826;2022-11-15T06:37:00;7.87;;;7.17;;
11964;SDS011;6042;41.326;19.826;2022-11-15T06:39:47;7.90;;;7.10;;
11964;SDS011;6042;41.326;19.826;2022-11-15T06:42:36;7.53;;;6.67;;
11964;SDS011;6042;41.326;19.826;2022-11-15T06:45:23;9.03;;;7.90;;
11964;SDS011;6042;41.326;19.826;2022-11-15T06:48:12;8.10;;;6.93;;
11964;SDS011;6042;41.326;19.826;2022-11-15T06:51:01;8.20;;;7.20;;
11964;SDS011;6042;41.326;19.826;2022-11-15T06:53:49;6.37;;;5.80;;
11964;SDS011;6042;41.326;19.826;2022-11-15T06:56:36;7.80;;;7.10;;
11964;SDS011;6042;41.326;19.826;2022-11-15T06:59:25;7.27;;;6.57;;
11964;SDS011;6042;41.326;19.826;2022-11-15T07:02:12;8.37;;;7.57;;
11964;SDS011;6042;41.326;19.826;2022-11-15T07:05:00;8.73;;;7.93;;
11964;SDS011;6042;41.326;19.826;2022-11-15T07:07:51;9.80;;;7.67;;
11964;SDS011;6042;41.326;19.826;2022-11-15T07:10:39;8.83;;;7.60;;
11964;SDS011;6042;41.326;19.826;2022-11-15T07:13:26;8.37;;;7.43;;
11964;SDS011;6042;41.326;19.826;2022-11-15T07:16:17;8.67;;;7.87;;
11964;SDS011;6042;41.326;19.826;2022-11-15T07:19:05;10.07;;;8.90;;
11964;SDS011;6042;41.326;19.826;2022-11-15T07:21:52;8.67;;;7.87;;
11964;SDS011;6042;41.326;19.826;2022-11-15T07:24:39;8.87;;;7.93;;
11964;SDS011;6042;41.326;19.826;2022-11-15T07:27:30;7.63;;;7.00;;
11964;SDS011;6042;41.326;19.826;2022-11-15T07:30:17;7.43;;;6.70;;
11964;SDS011;6042;41.326;19.826;2022-11-15T07:33:07;8.57;;;7.43;;
11964;SDS011;6042;41.326;19.826;2022-11-15T07:35:57;9.43;;;8.10;;
11964;SDS011;6042;41.326;19.826;2022-11-15T07:38:46;8.70;;;7.90;;
11964;SDS011;6042;41.326;19.826;2022-11-15T07:41:43;7.73;;;6.87;;
11964;SDS011;6042;41.326;19.826;2022-11-15T07:44:32;9.00;;;7.30;;
11964;SDS011;6042;41.326;19.826;2022-11-15T07:47:28;10.63;;;7.57;;
11964;SDS011;6042;41.326;19.826;2022-11-15T07:50:17;10.80;;;8.37;;
11964;SDS011;6042;41.326;19.826;2022-11-15T07:53:05;12.67;;;7.50;;
11964;SDS011;6042;41.326;19.826;2022-11-15T07:55:52;9.73;;;7.83;;
11964;SDS011;6042;41.326;19.826;2022-11-15T07:58:39;13.90;;;8.57;;
11964;SDS011;6042;41.326;19.826;2022-11-15T08:01:27;13.20;;;7.40;;
11964;SDS011;6042;41.326;19.826;2022-11-15T08:04:14;9.27;;;6.77;;
11964;SDS011;6042;41.326;19.826;2022-11-15T08:07:03;10.50;;;7.10;;
11964;SDS011;6042;41.326;19.826;2022-11-15T08:09:50;8.83;;;6.30;;
11964;SDS011;6042;41.326;19.826;2022-11-15T08:12:37;15.23;;;7.33;;
11964;SDS011;6042;41.326;19.826;2022-11-15T08:15:25;7.90;;;5.50;;
11964;SDS011;6042;41.326;19.826;2022-11-15T08:18:16;5.90;;;5.30;;
11964;SDS011;6042;41.326;19.826;2022-11-15T08:21:03;6.80;;;6.20;;
11964;SDS011;6042;41.326;19.826;2022-11-15T08:23:56;14.57;;;6.23;;
11964;SDS011;6042;41.326;19.826;2022-11-15T08:26:43;15.93;;;8.30;;
11964;SDS011;6042;41.326;19.826;2022-11-15T08:29:31;15.63;;;8.03;;
11964;SDS011;6042;41.326;19.826;2022-11-15T08:32:18;7.80;;;5.30;;
11964;SDS011;6042;41.326;19.826;2022-11-15T08:35:07;5.43;;;5.00;;
11964;SDS011;6042;41.326;19.826;2022-11-15T08:37:57;5.10;;;4.70;;
11964;SDS011;6042;41.326;19.826;2022-11-15T08:40:45;6.30;;;5.70;;
11964;SDS011;6042;41.326;19.826;2022-11-15T08:43:33;6.57;;;5.13;;
11964;SDS011;6042;41.326;19.826;2022-11-15T08:46:21;7.57;;;6.07;;
11964;SDS011;6042;41.326;19.826;2022-11-15T08:49:09;7.57;;;5.10;;
11964;SDS011;6042;41.326;19.826;2022-11-15T08:51:59;11.40;;;6.17;;
11964;SDS011;6042;41.326;19.826;2022-11-15T08:54:46;6.73;;;6.03;;
11964;SDS011;6042;41.326;19.826;2022-11-15T08:57:36;6.87;;;6.00;;
11964;SDS011;6042;41.326;19.826;2022-11-15T09:00:24;8.00;;;6.23;;
11964;SDS011;6042;41.326;19.826;2022-11-15T09:03:11;9.37;;;7.03;;
11964;SDS011;6042;41.326;19.826;2022-11-15T09:05:59;8.03;;;6.57;;
11964;SDS011;6042;41.326;19.826;2022-11-15T09:08:47;13.37;;;6.90;;
11964;SDS011;6042;41.326;19.826;2022-11-15T09:11:34;8.00;;;6.20;;
11964;SDS011;6042;41.326;19.826;2022-11-15T09:14:23;8.97;;;6.70;;
11964;SDS011;6042;41.326;19.826;2022-11-15T09:17:10;11.77;;;6.93;;
11964;SDS011;6042;41.326;19.826;2022-11-15T09:20:07;9.40;;;6.60;;
11964;SDS011;6042;41.326;19.826;2022-11-15T09:22:58;7.23;;;6.33;;
11964;SDS011;6042;41.326;19.826;2022-11-15T09:25:47;13.43;;;6.23;;
11964;SDS011;6042;41.326;19.826;2022-11-15T09:28:35;9.07;;;5.23;;
11964;SDS011;6042;41.326;19.826;2022-11-15T09:31:43;9.40;;;6.10;;
11964;SDS011;6042;41.326;19.826;2022-11-15T09:34:30;8.33;;;6.10;;
11964;SDS011;6042;41.326;19.826;2022-11-15T09:37:17;8.60;;;5.27;;
11964;SDS011;6042;41.326;19.826;2022-11-15T09:40:05;6.83;;;5.43;;
11964;SDS011;6042;41.326;19.826;2022-11-15T09:42:59;8.20;;;4.87;;
11964;SDS011;6042;41.326;19.826;2022-11-15T09:46:04;11.53;;;5.80;;
11964;SDS011;6042;41.326;19.826;2022-11-15T09:49:15;4.67;;;4.17;;
11964;SDS011;6042;41.326;19.826;2022-11-15T09:52:00;25.90;;;5.87;;
11964;SDS011;6042;41.326;19.826;2022-11-15T09:54:30;14.63;;;5.17;;
11964;SDS011;6042;41.326;19.826;2022-11-15T09:57:21;17.80;;;6.50;;
11964;SDS011;6042;41.326;19.826;2022-11-15T10:00:09;6.93;;;4.50;;
11964;SDS011;6042;41.326;19.826;2022-11-15T10:03:08;5.77;;;4.17;;
11964;SDS011;6042;41.326;19.826;2022-11-15T10:05:43;13.33;;;4.53;;
11964;SDS011;6042;41.326;19.826;2022-11-15T10:08:20;7.80;;;3.37;;
11964;SDS011;6042;41.326;19.826;2022-11-15T10:10:59;4.67;;;2.80;;
11964;SDS011;6042;41.326;19.826;2022-11-15T10:13:50;10.57;;;3.70;;
11964;SDS011;6042;41.326;19.826;2022-11-15T10:16:28;9.77;;;3.83;;
11964;SDS011;6042;41.326;19.826;2022-11-15T10:19:21;3.77;;;3.40;;
11964;SDS011;6042;41.326;19.826;2022-11-15T10:22:03;8.27;;;3.27;;
11964;SDS011;6042;41.326;19.826;2022-11-15T10:24:43;3.43;;;2.67;;
11964;SDS011;6042;41.326;19.826;2022-11-15T10:27:13;4.57;;;3.20;;
11964;SDS011;6042;41.326;19.826;2022-11-15T10:29:44;4.00;;;3.00;;
11964;SDS011;6042;41.326;19.826;2022-11-15T10:32:14;4.60;;;3.00;;
11964;SDS011;6042;41.326;19.826;2022-11-15T10:34:48;3.10;;;2.80;;
11964;SDS011;6042;41.326;19.826;2022-11-15T10:37:28;7.90;;;4.07;;
11964;SDS011;6042;41.326;19.826;2022-11-15T10:40:03;4.43;;;3.27;;
11964;SDS011;6042;41.326;19.826;2022-11-15T10:42:33;4.23;;;3.83;;
11964;SDS011;6042;41.326;19.826;2022-11-15T10:45:04;4.60;;;3.10;;
11964;SDS011;6042;41.326;19.826;2022-11-15T10:47:51;4.10;;;3.70;;
11964;SDS011;6042;41.326;19.826;2022-11-15T10:50:31;5.10;;;4.10;;
11964;SDS011;6042;41.326;19.826;2022-11-15T10:53:12;4.00;;;3.10;;
11964;SDS011;6042;41.326;19.826;2022-11-15T10:55:48;3.17;;;2.70;;
11964;SDS011;6042;41.326;19.826;2022-11-15T10:58:26;4.53;;;2.60;;
11964;SDS011;6042;41.326;19.826;2022-11-15T11:01:14;3.50;;;2.43;;
11964;SDS011;6042;41.326;19.826;2022-11-15T11:03:45;2.87;;;2.20;;
11964;SDS011;6042;41.326;19.826;2022-11-15T11:06:26;9.20;;;2.30;;
11964;SDS011;6042;41.326;19.826;2022-11-15T11:08:58;5.37;;;2.90;;
11964;SDS011;6042;41.326;19.826;2022-11-15T11:11:43;5.13;;;2.03;;
11964;SDS011;6042;41.326;19.826;2022-11-15T11:14:15;3.87;;;2.10;;
11964;SDS011;6042;41.326;19.826;2022-11-15T11:16:54;8.27;;;2.20;;
11964;SDS011;6042;41.326;19.826;2022-11-15T11:19:38;4.00;;;2.20;;
11964;SDS011;6042;41.326;19.826;2022-11-15T11:22:26;3.63;;;2.67;;
11964;SDS011;6042;41.326;19.826;2022-11-15T11:25:08;4.97;;;2.13;;
11964;SDS011;6042;41.326;19.826;2022-11-15T11:27:49;6.37;;;2.90;;
11964;SDS011;6042;41.326;19.826;2022-11-15T11:30:31;2.00;;;1.80;;
11964;SDS011;6042;41.326;19.826;2022-11-15T11:33:10;3.93;;;2.17;;
11964;SDS011;6042;41.326;19.826;2022-11-15T11:35:48;6.40;;;2.40;;
11964;SDS011;6042;41.326;19.826;2022-11-15T11:38:33;2.90;;;2.20;;
11964;SDS011;6042;41.326;19.826;2022-11-15T11:41:13;5.77;;;1.93;;
11964;SDS011;6042;41.326;19.826;2022-11-15T11:43:59;3.50;;;2.13;;
11964;SDS011;6042;41.326;19.826;2022-11-15T11:46:42;7.67;;;2.53;;
11964;SDS011;6042;41.326;19.826;2022-11-15T11:49:19;4.67;;;2.30;;
11964;SDS011;6042;41.326;19.826;2022-11-15T11:51:54;6.03;;;2.90;;
11964;SDS011;6042;41.326;19.826;2022-11-15T11:54:29;4.80;;;2.30;;
11964;SDS011;6042;41.326;19.826;2022-11-15T11:57:05;5.57;;;2.00;;
11964;SDS011;6042;41.326;19.826;2022-11-15T11:59:53;3.30;;;2.20;;
11964;SDS011;6042;41.326;19.826;2022-11-15T12:02:28;3.33;;;2.10;;
11964;SDS011;6042;41.326;19.826;2022-11-15T12:05:03;2.27;;;1.87;;
11964;SDS011;6042;41.326;19.826;2022-11-15T12:07:37;5.40;;;2.80;;
11964;SDS011;6042;41.326;19.826;2022-11-15T12:10:14;4.73;;;2.27;;
11964;SDS011;6042;41.326;19.826;2022-11-15T12:12:51;6.53;;;2.70;;
11964;SDS011;6042;41.326;19.826;2022-11-15T12:15:27;4.87;;;2.47;;
11964;SDS011;6042;41.326;19.826;2022-11-15T12:18:00;7.97;;;3.90;;
11964;SDS011;6042;41.326;19.826;2022-11-15T12:20:34;4.23;;;2.27;;
11964;SDS011;6042;41.326;19.826;2022-11-15T12:23:08;6.33;;;2.67;;
11964;SDS011;6042;41.326;19.826;2022-11-15T12:25:44;6.50;;;3.50;;
11964;SDS011;6042;41.326;19.826;2022-11-15T12:28:19;8.07;;;2.73;;
11964;SDS011;6042;41.326;19.826;2022-11-15T12:31:00;9.00;;;2.70;;
11964;SDS011;6042;41.326;19.826;2022-11-15T12:33:32;4.03;;;2.17;;
11964;SDS011;6042;41.326;19.826;2022-11-15T12:36:04;4.93;;;2.20;;
11964;SDS011;6042;41.326;19.826;2022-11-15T12:38:50;4.10;;;2.20;;
11964;SDS011;6042;41.326;19.826;2022-11-15T12:41:25;3.47;;;2.10;;
11964;SDS011;6042;41.326;19.826;2022-11-15T12:43:56;7.50;;;1.77;;
11964;SDS011;6042;41.326;19.826;2022-11-15T12:49:42;3.97;;;1.97;;
11964;SDS011;6042;41.326;19.826;2022-11-15T12:52:13;2.30;;;1.80;;
11964;SDS011;6042;41.326;19.826;2022-11-15T12:54:56;7.57;;;2.30;;
11964;SDS011;6042;41.326;19.826;2022-11-15T12:57:36;4.17;;;2.70;;
11964;SDS011;6042;41.326;19.826;2022-11-15T13:03:23;5.63;;;2.80;;
11964;SDS011;6042;41.326;19.826;2022-11-15T13:06:00;3.23;;;2.43;;
11964;SDS011;6042;41.326;19.826;2022-11-15T13:17:25;3.50;;;2.57;;
11964;SDS011;6042;41.326;19.826;2022-11-15T13:20:00;3.33;;;2.80;;
11964;SDS011;6042;41.326;19.826;2022-11-15T13:22:41;6.93;;;2.70;;
11964;SDS011;6042;41.326;19.826;2022-11-15T13:25:25;6.33;;;3.10;;
11964;SDS011;6042;41.326;19.826;2022-11-15T13:28:09;2.40;;;2.20;;
11964;SDS011;6042;41.326;19.826;2022-11-15T13:30:48;5.97;;;2.77;;
11964;SDS011;6042;41.326;19.826;2022-11-15T13:33:21;6.07;;;3.27;;
11964;SDS011;6042;41.326;19.826;2022-11-15T13:36:01;6.07;;;2.87;;
11964;SDS011;6042;41.326;19.826;2022-11-15T13:38:33;7.27;;;2.73;;
11964;SDS011;6042;41.326;19.826;2022-11-15T13:41:11;7.47;;;2.80;;
11964;SDS011;6042;41.326;19.826;2022-11-15T13:43:46;7.33;;;3.77;;
11964;SDS011;6042;41.326;19.826;2022-11-15T13:46:16;6.17;;;2.63;;
11964;SDS011;6042;41.326;19.826;2022-11-15T13:48:51;2.60;;;2.40;;
11964;SDS011;6042;41.326;19.826;2022-11-15T13:51:24;4.20;;;2.57;;
11964;SDS011;6042;41.326;19.826;2022-11-15T13:54:03;4.80;;;2.40;;
11964;SDS011;6042;41.326;19.826;2022-11-15T13:56:37;2.50;;;2.30;;
11964;SDS011;6042;41.326;19.826;2022-11-15T13:59:08;4.20;;;2.30;;
11964;SDS011;6042;41.326;19.826;2022-11-15T14:01:39;7.73;;;2.87;;
11964;SDS011;6042;41.326;19.826;2022-11-15T14:04:12;3.60;;;2.37;;
11964;SDS011;6042;41.326;19.826;2022-11-15T14:06:48;5.90;;;2.53;;
11964;SDS011;6042;41.326;19.826;2022-11-15T14:09:30;3.03;;;2.40;;
11964;SDS011;6042;41.326;19.826;2022-11-15T14:14:53;5.97;;;2.90;;
11964;SDS011;6042;41.326;19.826;2022-11-15T14:17:32;6.60;;;3.20;;
11964;SDS011;6042;41.326;19.826;2022-11-15T14:23:02;4.07;;;2.60;;
11964;SDS011;6042;41.326;19.826;2022-11-15T14:25:35;2.83;;;2.57;;
11964;SDS011;6042;41.326;19.826;2022-11-15T14:28:08;4.17;;;2.93;;
11964;SDS011;6042;41.326;19.826;2022-11-15T14:30:44;5.80;;;3.00;;
11964;SDS011;6042;41.326;19.826;2022-11-15T14:33:21;10.13;;;3.13;;
11964;SDS011;6042;41.326;19.826;2022-11-15T14:35:53;8.83;;;3.20;;
11964;SDS011;6042;41.326;19.826;2022-11-15T14:38:24;4.90;;;2.90;;
11964;SDS011;6042;41.326;19.826;2022-11-15T14:40:54;8.17;;;3.03;;
11964;SDS011;6042;41.326;19.826;2022-11-15T14:43:23;14.23;;;4.10;;
11964;SDS011;6042;41.326;19.826;2022-11-15T14:45:52;6.17;;;3.30;;
11964;SDS011;6042;41.326;19.826;2022-11-15T14:48:21;6.53;;;2.80;;
11964;SDS011;6042;41.326;19.826;2022-11-15T14:50:50;7.73;;;3.40;;
11964;SDS011;6042;41.326;19.826;2022-11-15T14:53:18;10.50;;;3.53;;
11964;SDS011;6042;41.326;19.826;2022-11-15T14:55:50;13.63;;;3.60;;
11964;SDS011;6042;41.326;19.826;2022-11-15T14:58:21;9.70;;;3.80;;
11964;SDS011;6042;41.326;19.826;2022-11-15T15:00:49;6.80;;;4.33;;
11964;SDS011;6042;41.326;19.826;2022-11-15T15:03:18;6.20;;;3.03;;
11964;SDS011;6042;41.326;19.826;2022-11-15T15:05:47;5.17;;;3.23;;
11964;SDS011;6042;41.326;19.826;2022-11-15T15:08:15;3.53;;;3.23;;
11964;SDS011;6042;41.326;19.826;2022-11-15T15:10:45;10.20;;;4.33;;
11964;SDS011;6042;41.326;19.826;2022-11-15T15:13:17;7.90;;;3.87;;
11964;SDS011;6042;41.326;19.826;2022-11-15T15:15:47;7.93;;;3.87;;
11964;SDS011;6042;41.326;19.826;2022-11-15T15:18:17;10.37;;;4.93;;
11964;SDS011;6042;41.326;19.826;2022-11-15T15:20:49;25.40;;;8.47;;
11964;SDS011;6042;41.326;19.826;2022-11-15T15:23:23;24.07;;;7.10;;
11964;SDS011;6042;41.326;19.826;2022-11-15T15:25:56;11.17;;;5.90;;
11964;SDS011;6042;41.326;19.826;2022-11-15T15:28:33;7.73;;;4.40;;
11964;SDS011;6042;41.326;19.826;2022-11-15T15:31:03;10.93;;;4.87;;
11964;SDS011;6042;41.326;19.826;2022-11-15T15:33:31;8.80;;;4.27;;
11964;SDS011;6042;41.326;19.826;2022-11-15T15:36:00;11.37;;;4.67;;
11964;SDS011;6042;41.326;19.826;2022-11-15T15:38:29;10.00;;;5.30;;
11964;SDS011;6042;41.326;19.826;2022-11-15T15:40:58;7.63;;;5.07;;
11964;SDS011;6042;41.326;19.826;2022-11-15T15:43:29;7.17;;;4.50;;
11964;SDS011;6042;41.326;19.826;2022-11-15T15:45:59;8.60;;;5.20;;
11964;SDS011;6042;41.326;19.826;2022-11-15T15:48:28;9.47;;;4.93;;
11964;SDS011;6042;41.326;19.826;2022-11-15T15:50:57;9.70;;;5.23;;
11964;SDS011;6042;41.326;19.826;2022-11-15T15:53:26;7.03;;;4.57;;
11964;SDS011;6042;41.326;19.826;2022-11-15T15:55:57;11.00;;;4.70;;
11964;SDS011;6042;41.326;19.826;2022-11-15T15:58:28;6.60;;;4.83;;
11964;SDS011;6042;41.326;19.826;2022-11-15T16:01:00;8.40;;;5.30;;
11964;SDS011;6042;41.326;19.826;2022-11-15T16:03:29;13.37;;;5.30;;
11964;SDS011;6042;41.326;19.826;2022-11-15T16:05:57;7.17;;;5.10;;
11964;SDS011;6042;41.326;19.826;2022-11-15T16:08:27;11.60;;;5.93;;
11964;SDS011;6042;41.326;19.826;2022-11-15T16:11:16;10.80;;;5.87;;
11964;SDS011;6042;41.326;19.826;2022-11-15T16:13:44;21.40;;;6.83;;
11964;SDS011;6042;41.326;19.826;2022-11-15T16:16:15;16.93;;;6.67;;
11964;SDS011;6042;41.326;19.826;2022-11-15T16:18:45;10.40;;;5.90;;
11964;SDS011;6042;41.326;19.826;2022-11-15T16:21:13;13.97;;;6.33;;
11964;SDS011;6042;41.326;19.826;2022-11-15T16:23:42;20.17;;;11.10;;
11964;SDS011;6042;41.326;19.826;2022-11-15T16:26:14;16.60;;;10.20;;
11964;SDS011;6042;41.326;19.826;2022-11-15T16:28:48;15.20;;;8.63;;
11964;SDS011;6042;41.326;19.826;2022-11-15T16:31:18;12.57;;;7.43;;
11964;SDS011;6042;41.326;19.826;2022-11-15T16:33:49;11.77;;;6.87;;
11964;SDS011;6042;41.326;19.826;2022-11-15T16:36:19;13.33;;;7.47;;
11964;SDS011;6042;41.326;19.826;2022-11-15T16:38:56;12.13;;;7.67;;
11964;SDS011;6042;41.326;19.826;2022-11-15T16:41:25;14.03;;;8.10;;
11964;SDS011;6042;41.326;19.826;2022-11-15T16:43:54;16.90;;;7.77;;
11964;SDS011;6042;41.326;19.826;2022-11-15T16:46:24;16.93;;;8.20;;